sensor_id;sensor_type;location;lat;lon;timestamp;P1;durP1;ratioP1;P2;durP2;ratioP2
7817;SDS011;3954;52.624;9.212;2023-08-31T00:01:53;10.57;;;9.47;;
7817;SDS011;3954;52.624;9.212;2023-08-31T00:04:19;9.60;;;8.60;;
7817;SDS011;3954;52.624;9.212;2023-08-31T00:06:45;10.80;;;8.60;;
7817;SDS011;3954;52.624;9.212;2023-08-31T00:09:12;10.50;;;9.40;;
7817;SDS011;3954;52.624;9.212;2023-08-31T00:11:38;9.53;;;8.43;;
7817;SDS011;3954;52.624;9.212;2023-08-31T00:14:04;10.07;;;8.87;;
7817;SDS011;3954;52.624;9.212;2023-08-31T00:16:30;9.83;;;8.73;;
7817;SDS011;3954;52.624;9.212;2023-08-31T00:18:59;10.00;;;8.23;;
7817;SDS011;3954;52.624;9.212;2023-08-31T00:21:25;9.27;;;7.43;;
7817;SDS011;3954;52.624;9.212;2023-08-31T00:23:51;9.67;;;7.03;;
7817;SDS011;3954;52.624;9.212;2023-08-31T00:26:19;9.77;;;6.97;;
7817;SDS011;3954;52.624;9.212;2023-08-31T00:28:45;7.97;;;6.97;;
7817;SDS011;3954;52.624;9.212;2023-08-31T00:31:11;8.57;;;6.40;;
7817;SDS011;3954;52.624;9.212;2023-08-31T00:33:37;9.20;;;6.27;;
7817;SDS011;3954;52.624;9.212;2023-08-31T00:36:05;6.87;;;6.17;;
7817;SDS011;3954;52.624;9.212;2023-08-31T00:38:31;9.20;;;7.37;;
7817;SDS011;3954;52.624;9.212;2023-08-31T00:40:57;9.47;;;6.73;;
7817;SDS011;3954;52.624;9.212;2023-08-31T00:43:23;11.40;;;6.80;;
7817;SDS011;3954;52.624;9.212;2023-08-31T00:45:54;6.93;;;5.80;;
7817;SDS011;3954;52.624;9.212;2023-08-31T00:48:23;6.80;;;6.03;;
7817;SDS011;3954;52.624;9.212;2023-08-31T00:50:49;7.33;;;6.00;;
7817;SDS011;3954;52.624;9.212;2023-08-31T00:53:17;8.33;;;6.87;;
7817;SDS011;3954;52.624;9.212;2023-08-31T00:55:43;7.40;;;6.10;;
7817;SDS011;3954;52.624;9.212;2023-08-31T00:58:10;9.10;;;6.00;;
7817;SDS011;3954;52.624;9.212;2023-08-31T01:00:40;7.50;;;6.77;;
7817;SDS011;3954;52.624;9.212;2023-08-31T01:03:09;11.10;;;6.57;;
7817;SDS011;3954;52.624;9.212;2023-08-31T01:05:40;8.67;;;6.90;;
7817;SDS011;3954;52.624;9.212;2023-08-31T01:08:14;7.80;;;6.80;;
7817;SDS011;3954;52.624;9.212;2023-08-31T01:10:47;9.77;;;7.07;;
7817;SDS011;3954;52.624;9.212;2023-08-31T01:13:14;8.30;;;6.23;;
7817;SDS011;3954;52.624;9.212;2023-08-31T01:15:44;7.87;;;6.03;;
7817;SDS011;3954;52.624;9.212;2023-08-31T01:18:11;8.03;;;6.37;;
7817;SDS011;3954;52.624;9.212;2023-08-31T01:20:41;9.67;;;6.90;;
7817;SDS011;3954;52.624;9.212;2023-08-31T01:23:09;8.00;;;6.73;;
7817;SDS011;3954;52.624;9.212;2023-08-31T01:25:38;8.10;;;6.30;;
7817;SDS011;3954;52.624;9.212;2023-08-31T01:28:05;9.43;;;6.37;;
7817;SDS011;3954;52.624;9.212;2023-08-31T01:30:32;7.33;;;6.57;;
7817;SDS011;3954;52.624;9.212;2023-08-31T01:32:59;10.27;;;6.80;;
7817;SDS011;3954;52.624;9.212;2023-08-31T01:35:26;8.80;;;6.83;;
7817;SDS011;3954;52.624;9.212;2023-08-31T01:37:53;8.03;;;5.63;;
7817;SDS011;3954;52.624;9.212;2023-08-31T01:40:21;8.50;;;6.33;;
7817;SDS011;3954;52.624;9.212;2023-08-31T01:42:50;11.47;;;7.33;;
7817;SDS011;3954;52.624;9.212;2023-08-31T01:45:18;7.77;;;6.97;;
7817;SDS011;3954;52.624;9.212;2023-08-31T01:47:45;7.23;;;6.53;;
7817;SDS011;3954;52.624;9.212;2023-08-31T01:50:11;8.53;;;6.57;;
7817;SDS011;3954;52.624;9.212;2023-08-31T01:52:37;9.57;;;6.93;;
7817;SDS011;3954;52.624;9.212;2023-08-31T01:55:04;9.03;;;6.27;;
7817;SDS011;3954;52.624;9.212;2023-08-31T01:57:30;9.40;;;5.90;;
7817;SDS011;3954;52.624;9.212;2023-08-31T01:59:58;9.17;;;6.67;;
7817;SDS011;3954;52.624;9.212;2023-08-31T02:02:24;6.90;;;5.67;;
7817;SDS011;3954;52.624;9.212;2023-08-31T02:04:50;8.97;;;5.77;;
7817;SDS011;3954;52.624;9.212;2023-08-31T02:07:16;6.97;;;5.27;;
7817;SDS011;3954;52.624;9.212;2023-08-31T02:09:43;6.70;;;5.13;;
7817;SDS011;3954;52.624;9.212;2023-08-31T02:12:09;7.80;;;5.23;;
7817;SDS011;3954;52.624;9.212;2023-08-31T02:14:35;11.07;;;6.10;;
7817;SDS011;3954;52.624;9.212;2023-08-31T02:17:02;7.33;;;5.93;;
7817;SDS011;3954;52.624;9.212;2023-08-31T02:19:28;8.73;;;5.93;;
7817;SDS011;3954;52.624;9.212;2023-08-31T02:21:55;9.07;;;6.70;;
7817;SDS011;3954;52.624;9.212;2023-08-31T02:24:21;7.53;;;6.10;;
7817;SDS011;3954;52.624;9.212;2023-08-31T02:26:47;9.20;;;6.80;;
7817;SDS011;3954;52.624;9.212;2023-08-31T02:29:14;9.10;;;6.27;;
7817;SDS011;3954;52.624;9.212;2023-08-31T02:31:40;8.13;;;6.57;;
7817;SDS011;3954;52.624;9.212;2023-08-31T02:34:08;8.20;;;6.13;;
7817;SDS011;3954;52.624;9.212;2023-08-31T02:36:34;7.47;;;6.67;;
7817;SDS011;3954;52.624;9.212;2023-08-31T02:39:00;11.23;;;7.20;;
7817;SDS011;3954;52.624;9.212;2023-08-31T02:41:26;7.67;;;6.30;;
7817;SDS011;3954;52.624;9.212;2023-08-31T02:43:53;8.67;;;7.47;;
7817;SDS011;3954;52.624;9.212;2023-08-31T02:46:19;12.30;;;7.30;;
7817;SDS011;3954;52.624;9.212;2023-08-31T02:48:45;7.77;;;6.13;;
7817;SDS011;3954;52.624;9.212;2023-08-31T02:51:13;10.27;;;7.00;;
7817;SDS011;3954;52.624;9.212;2023-08-31T02:53:39;8.63;;;6.47;;
7817;SDS011;3954;52.624;9.212;2023-08-31T02:56:05;9.13;;;6.67;;
7817;SDS011;3954;52.624;9.212;2023-08-31T02:58:31;7.97;;;6.33;;
7817;SDS011;3954;52.624;9.212;2023-08-31T03:01:05;6.93;;;6.00;;
7817;SDS011;3954;52.624;9.212;2023-08-31T03:03:31;7.87;;;5.93;;
7817;SDS011;3954;52.624;9.212;2023-08-31T03:05:57;7.80;;;6.77;;
7817;SDS011;3954;52.624;9.212;2023-08-31T03:08:25;6.97;;;6.27;;
7817;SDS011;3954;52.624;9.212;2023-08-31T03:10:51;8.10;;;5.53;;
7817;SDS011;3954;52.624;9.212;2023-08-31T03:13:18;6.50;;;4.77;;
7817;SDS011;3954;52.624;9.212;2023-08-31T03:15:44;9.17;;;5.80;;
7817;SDS011;3954;52.624;9.212;2023-08-31T03:18:10;7.30;;;5.33;;
7817;SDS011;3954;52.624;9.212;2023-08-31T03:20:36;8.70;;;5.60;;
7817;SDS011;3954;52.624;9.212;2023-08-31T03:23:02;9.13;;;5.83;;
7817;SDS011;3954;52.624;9.212;2023-08-31T03:25:29;6.77;;;5.37;;
7817;SDS011;3954;52.624;9.212;2023-08-31T03:27:55;7.00;;;4.70;;
7817;SDS011;3954;52.624;9.212;2023-08-31T03:30:22;7.20;;;5.30;;
7817;SDS011;3954;52.624;9.212;2023-08-31T03:32:48;8.53;;;4.70;;
7817;SDS011;3954;52.624;9.212;2023-08-31T03:35:14;7.60;;;4.97;;
7817;SDS011;3954;52.624;9.212;2023-08-31T03:37:40;5.97;;;4.87;;
7817;SDS011;3954;52.624;9.212;2023-08-31T03:40:06;7.27;;;5.23;;
7817;SDS011;3954;52.624;9.212;2023-08-31T03:42:34;6.30;;;5.20;;
7817;SDS011;3954;52.624;9.212;2023-08-31T03:45:00;7.90;;;5.17;;
7817;SDS011;3954;52.624;9.212;2023-08-31T03:47:28;6.73;;;4.70;;
7817;SDS011;3954;52.624;9.212;2023-08-31T03:49:54;6.07;;;5.23;;
7817;SDS011;3954;52.624;9.212;2023-08-31T03:52:20;5.97;;;4.80;;
7817;SDS011;3954;52.624;9.212;2023-08-31T03:54:47;5.67;;;5.10;;
7817;SDS011;3954;52.624;9.212;2023-08-31T03:57:14;5.87;;;5.17;;
7817;SDS011;3954;52.624;9.212;2023-08-31T03:59:41;10.13;;;5.77;;
7817;SDS011;3954;52.624;9.212;2023-08-31T04:02:07;10.50;;;6.07;;
7817;SDS011;3954;52.624;9.212;2023-08-31T04:04:33;5.93;;;5.33;;
7817;SDS011;3954;52.624;9.212;2023-08-31T04:06:59;6.97;;;5.80;;
7817;SDS011;3954;52.624;9.212;2023-08-31T04:09:25;6.63;;;5.97;;
7817;SDS011;3954;52.624;9.212;2023-08-31T04:11:52;13.27;;;6.37;;
7817;SDS011;3954;52.624;9.212;2023-08-31T04:14:18;11.10;;;6.40;;
7817;SDS011;3954;52.624;9.212;2023-08-31T04:16:45;6.73;;;6.10;;
7817;SDS011;3954;52.624;9.212;2023-08-31T04:19:14;7.00;;;6.20;;
7817;SDS011;3954;52.624;9.212;2023-08-31T04:21:40;7.77;;;5.80;;
7817;SDS011;3954;52.624;9.212;2023-08-31T04:24:06;9.30;;;6.57;;
7817;SDS011;3954;52.624;9.212;2023-08-31T04:26:32;7.33;;;6.50;;
7817;SDS011;3954;52.624;9.212;2023-08-31T04:28:58;6.87;;;6.00;;
7817;SDS011;3954;52.624;9.212;2023-08-31T04:31:24;6.53;;;5.77;;
7817;SDS011;3954;52.624;9.212;2023-08-31T04:33:52;7.57;;;6.40;;
7817;SDS011;3954;52.624;9.212;2023-08-31T04:36:21;9.17;;;7.30;;
7817;SDS011;3954;52.624;9.212;2023-08-31T04:38:47;8.40;;;6.50;;
7817;SDS011;3954;52.624;9.212;2023-08-31T04:41:16;9.50;;;7.00;;
7817;SDS011;3954;52.624;9.212;2023-08-31T04:43:42;13.17;;;7.80;;
7817;SDS011;3954;52.624;9.212;2023-08-31T04:46:08;12.70;;;8.73;;
7817;SDS011;3954;52.624;9.212;2023-08-31T04:48:35;10.50;;;8.63;;
7817;SDS011;3954;52.624;9.212;2023-08-31T04:51:02;10.67;;;8.33;;
7817;SDS011;3954;52.624;9.212;2023-08-31T04:53:31;9.27;;;8.27;;
7817;SDS011;3954;52.624;9.212;2023-08-31T04:55:57;10.30;;;8.03;;
7817;SDS011;3954;52.624;9.212;2023-08-31T04:58:24;9.03;;;7.63;;
7817;SDS011;3954;52.624;9.212;2023-08-31T05:00:51;9.10;;;7.67;;
7817;SDS011;3954;52.624;9.212;2023-08-31T05:03:17;10.23;;;7.87;;
7817;SDS011;3954;52.624;9.212;2023-08-31T05:05:43;7.77;;;7.00;;
7817;SDS011;3954;52.624;9.212;2023-08-31T05:08:10;9.10;;;7.83;;
7817;SDS011;3954;52.624;9.212;2023-08-31T05:10:36;10.93;;;8.23;;
7817;SDS011;3954;52.624;9.212;2023-08-31T05:13:02;12.40;;;8.87;;
7817;SDS011;3954;52.624;9.212;2023-08-31T05:15:29;11.50;;;8.03;;
7817;SDS011;3954;52.624;9.212;2023-08-31T05:17:55;12.13;;;8.77;;
7817;SDS011;3954;52.624;9.212;2023-08-31T05:20:21;12.63;;;10.07;;
7817;SDS011;3954;52.624;9.212;2023-08-31T05:22:48;12.37;;;9.03;;
7817;SDS011;3954;52.624;9.212;2023-08-31T05:25:16;11.47;;;9.23;;
7817;SDS011;3954;52.624;9.212;2023-08-31T05:27:42;11.57;;;10.43;;
7817;SDS011;3954;52.624;9.212;2023-08-31T05:30:08;18.60;;;11.37;;
7817;SDS011;3954;52.624;9.212;2023-08-31T05:32:34;12.90;;;10.47;;
7817;SDS011;3954;52.624;9.212;2023-08-31T05:35:00;15.40;;;10.37;;
7817;SDS011;3954;52.624;9.212;2023-08-31T05:37:30;14.17;;;11.17;;
7817;SDS011;3954;52.624;9.212;2023-08-31T05:39:57;16.87;;;11.13;;
7817;SDS011;3954;52.624;9.212;2023-08-31T05:42:24;12.47;;;11.20;;
7817;SDS011;3954;52.624;9.212;2023-08-31T05:44:51;14.87;;;12.70;;
7817;SDS011;3954;52.624;9.212;2023-08-31T05:47:19;14.37;;;11.20;;
7817;SDS011;3954;52.624;9.212;2023-08-31T05:49:45;12.27;;;10.80;;
7817;SDS011;3954;52.624;9.212;2023-08-31T05:52:11;17.10;;;12.30;;
7817;SDS011;3954;52.624;9.212;2023-08-31T05:54:37;15.90;;;11.07;;
7817;SDS011;3954;52.624;9.212;2023-08-31T05:57:04;12.87;;;10.90;;
7817;SDS011;3954;52.624;9.212;2023-08-31T05:59:32;13.40;;;12.00;;
7817;SDS011;3954;52.624;9.212;2023-08-31T06:01:58;12.37;;;10.93;;
7817;SDS011;3954;52.624;9.212;2023-08-31T06:04:24;12.77;;;11.10;;
7817;SDS011;3954;52.624;9.212;2023-08-31T06:06:50;11.87;;;9.90;;
7817;SDS011;3954;52.624;9.212;2023-08-31T06:09:19;14.07;;;11.57;;
7817;SDS011;3954;52.624;9.212;2023-08-31T06:11:45;12.53;;;11.13;;
7817;SDS011;3954;52.624;9.212;2023-08-31T06:14:11;12.10;;;10.90;;
7817;SDS011;3954;52.624;9.212;2023-08-31T06:16:38;12.77;;;11.33;;
7817;SDS011;3954;52.624;9.212;2023-08-31T06:19:04;12.17;;;10.63;;
7817;SDS011;3954;52.624;9.212;2023-08-31T06:21:30;12.37;;;11.07;;
7817;SDS011;3954;52.624;9.212;2023-08-31T06:23:57;13.20;;;10.60;;
7817;SDS011;3954;52.624;9.212;2023-08-31T06:26:23;13.73;;;11.40;;
7817;SDS011;3954;52.624;9.212;2023-08-31T06:28:49;13.93;;;11.80;;
7817;SDS011;3954;52.624;9.212;2023-08-31T06:31:15;14.27;;;11.93;;
7817;SDS011;3954;52.624;9.212;2023-08-31T06:33:43;12.57;;;10.67;;
7817;SDS011;3954;52.624;9.212;2023-08-31T06:36:09;12.27;;;11.03;;
7817;SDS011;3954;52.624;9.212;2023-08-31T06:38:35;13.80;;;12.40;;
7817;SDS011;3954;52.624;9.212;2023-08-31T06:41:01;13.77;;;11.70;;
7817;SDS011;3954;52.624;9.212;2023-08-31T06:43:27;14.00;;;12.03;;
7817;SDS011;3954;52.624;9.212;2023-08-31T06:45:54;13.70;;;11.77;;
7817;SDS011;3954;52.624;9.212;2023-08-31T06:48:20;13.77;;;11.97;;
7817;SDS011;3954;52.624;9.212;2023-08-31T06:50:47;13.23;;;12.03;;
7817;SDS011;3954;52.624;9.212;2023-08-31T06:53:13;15.87;;;13.60;;
7817;SDS011;3954;52.624;9.212;2023-08-31T06:55:40;15.03;;;13.53;;
7817;SDS011;3954;52.624;9.212;2023-08-31T06:58:06;17.63;;;13.30;;
7817;SDS011;3954;52.624;9.212;2023-08-31T07:00:32;14.40;;;13.00;;
7817;SDS011;3954;52.624;9.212;2023-08-31T07:02:58;14.83;;;12.63;;
7817;SDS011;3954;52.624;9.212;2023-08-31T07:05:24;15.00;;;13.50;;
7817;SDS011;3954;52.624;9.212;2023-08-31T07:07:53;14.20;;;12.80;;
7817;SDS011;3954;52.624;9.212;2023-08-31T07:10:19;16.77;;;15.07;;
7817;SDS011;3954;52.624;9.212;2023-08-31T07:12:45;15.77;;;14.27;;
7817;SDS011;3954;52.624;9.212;2023-08-31T07:15:11;16.97;;;15.27;;
7817;SDS011;3954;52.624;9.212;2023-08-31T07:17:37;17.37;;;15.57;;
7817;SDS011;3954;52.624;9.212;2023-08-31T07:20:04;16.83;;;15.20;;
7817;SDS011;3954;52.624;9.212;2023-08-31T07:22:33;16.90;;;15.07;;
7817;SDS011;3954;52.624;9.212;2023-08-31T07:25:00;16.03;;;14.37;;
7817;SDS011;3954;52.624;9.212;2023-08-31T07:27:28;14.47;;;13.27;;
7817;SDS011;3954;52.624;9.212;2023-08-31T07:29:54;14.20;;;12.90;;
7817;SDS011;3954;52.624;9.212;2023-08-31T07:32:20;18.33;;;12.93;;
7817;SDS011;3954;52.624;9.212;2023-08-31T07:34:47;17.87;;;12.60;;
7817;SDS011;3954;52.624;9.212;2023-08-31T07:37:13;13.80;;;12.40;;
7817;SDS011;3954;52.624;9.212;2023-08-31T07:39:39;14.37;;;13.00;;
7817;SDS011;3954;52.624;9.212;2023-08-31T07:42:06;13.47;;;12.27;;
7817;SDS011;3954;52.624;9.212;2023-08-31T07:44:32;13.53;;;12.10;;
7817;SDS011;3954;52.624;9.212;2023-08-31T07:46:59;12.47;;;11.20;;
7817;SDS011;3954;52.624;9.212;2023-08-31T07:49:25;13.00;;;11.80;;
7817;SDS011;3954;52.624;9.212;2023-08-31T07:51:51;12.43;;;11.33;;
7817;SDS011;3954;52.624;9.212;2023-08-31T07:54:20;11.70;;;10.63;;
7817;SDS011;3954;52.624;9.212;2023-08-31T07:56:48;12.37;;;11.13;;
7817;SDS011;3954;52.624;9.212;2023-08-31T07:59:17;13.77;;;12.37;;
7817;SDS011;3954;52.624;9.212;2023-08-31T08:01:43;12.33;;;11.13;;
7817;SDS011;3954;52.624;9.212;2023-08-31T08:04:10;13.33;;;12.00;;
7817;SDS011;3954;52.624;9.212;2023-08-31T08:06:36;12.37;;;11.20;;
7817;SDS011;3954;52.624;9.212;2023-08-31T08:09:02;11.47;;;10.37;;
7817;SDS011;3954;52.624;9.212;2023-08-31T08:11:29;11.37;;;10.27;;
7817;SDS011;3954;52.624;9.212;2023-08-31T08:13:55;10.93;;;9.83;;
7817;SDS011;3954;52.624;9.212;2023-08-31T08:16:23;11.57;;;10.10;;
7817;SDS011;3954;52.624;9.212;2023-08-31T08:18:49;11.07;;;9.97;;
7817;SDS011;3954;52.624;9.212;2023-08-31T08:21:15;9.93;;;9.00;;
7817;SDS011;3954;52.624;9.212;2023-08-31T08:23:41;9.13;;;7.93;;
7817;SDS011;3954;52.624;9.212;2023-08-31T08:26:07;9.73;;;7.60;;
7817;SDS011;3954;52.624;9.212;2023-08-31T08:28:33;8.17;;;7.40;;
7817;SDS011;3954;52.624;9.212;2023-08-31T08:31:00;8.13;;;7.27;;
7817;SDS011;3954;52.624;9.212;2023-08-31T08:33:29;8.53;;;7.83;;
7817;SDS011;3954;52.624;9.212;2023-08-31T08:35:55;8.23;;;7.43;;
7817;SDS011;3954;52.624;9.212;2023-08-31T08:38:22;8.43;;;7.03;;
7817;SDS011;3954;52.624;9.212;2023-08-31T08:40:48;7.70;;;6.67;;
7817;SDS011;3954;52.624;9.212;2023-08-31T08:43:14;7.40;;;5.80;;
7817;SDS011;3954;52.624;9.212;2023-08-31T08:45:40;8.43;;;6.53;;
7817;SDS011;3954;52.624;9.212;2023-08-31T08:48:08;7.60;;;5.77;;
7817;SDS011;3954;52.624;9.212;2023-08-31T08:50:35;6.07;;;5.50;;
7817;SDS011;3954;52.624;9.212;2023-08-31T08:53:02;5.73;;;5.23;;
7817;SDS011;3954;52.624;9.212;2023-08-31T08:55:28;5.87;;;5.27;;
7817;SDS011;3954;52.624;9.212;2023-08-31T08:57:55;5.37;;;4.90;;
7817;SDS011;3954;52.624;9.212;2023-08-31T09:00:21;7.63;;;5.13;;
7817;SDS011;3954;52.624;9.212;2023-08-31T09:02:47;6.30;;;4.83;;
7817;SDS011;3954;52.624;9.212;2023-08-31T09:05:13;6.53;;;4.57;;
7817;SDS011;3954;52.624;9.212;2023-08-31T09:10:22;6.00;;;4.43;;
7817;SDS011;3954;52.624;9.212;2023-08-31T09:12:49;5.60;;;3.50;;
7817;SDS011;3954;52.624;9.212;2023-08-31T09:15:15;4.70;;;3.90;;
7817;SDS011;3954;52.624;9.212;2023-08-31T09:17:41;4.57;;;4.13;;
7817;SDS011;3954;52.624;9.212;2023-08-31T09:20:09;5.33;;;4.00;;
7817;SDS011;3954;52.624;9.212;2023-08-31T09:22:35;4.93;;;4.37;;
7817;SDS011;3954;52.624;9.212;2023-08-31T09:25:01;4.50;;;3.53;;
7817;SDS011;3954;52.624;9.212;2023-08-31T09:27:32;7.43;;;3.80;;
7817;SDS011;3954;52.624;9.212;2023-08-31T09:30:03;5.60;;;3.40;;
7817;SDS011;3954;52.624;9.212;2023-08-31T09:32:29;5.23;;;3.10;;
7817;SDS011;3954;52.624;9.212;2023-08-31T09:34:56;4.07;;;2.73;;
7817;SDS011;3954;52.624;9.212;2023-08-31T09:37:22;5.53;;;3.20;;
7817;SDS011;3954;52.624;9.212;2023-08-31T09:39:48;3.30;;;2.90;;
7817;SDS011;3954;52.624;9.212;2023-08-31T09:42:14;4.00;;;2.90;;
7817;SDS011;3954;52.624;9.212;2023-08-31T09:44:42;3.63;;;2.27;;
7817;SDS011;3954;52.624;9.212;2023-08-31T09:47:08;4.43;;;2.43;;
7817;SDS011;3954;52.624;9.212;2023-08-31T09:49:35;3.60;;;2.30;;
7817;SDS011;3954;52.624;9.212;2023-08-31T09:52:02;3.17;;;2.53;;
7817;SDS011;3954;52.624;9.212;2023-08-31T09:54:30;2.80;;;2.23;;
7817;SDS011;3954;52.624;9.212;2023-08-31T09:56:56;4.17;;;2.67;;
7817;SDS011;3954;52.624;9.212;2023-08-31T09:59:26;5.37;;;2.70;;
7817;SDS011;3954;52.624;9.212;2023-08-31T10:01:54;4.00;;;2.67;;
7817;SDS011;3954;52.624;9.212;2023-08-31T10:04:26;3.13;;;2.60;;
7817;SDS011;3954;52.624;9.212;2023-08-31T10:06:52;5.37;;;3.07;;
7817;SDS011;3954;52.624;9.212;2023-08-31T10:09:19;3.37;;;2.43;;
7817;SDS011;3954;52.624;9.212;2023-08-31T10:11:45;3.37;;;2.77;;
7817;SDS011;3954;52.624;9.212;2023-08-31T10:14:12;6.27;;;3.33;;
7817;SDS011;3954;52.624;9.212;2023-08-31T10:16:39;5.47;;;2.80;;
7817;SDS011;3954;52.624;9.212;2023-08-31T10:19:06;3.40;;;2.70;;
7817;SDS011;3954;52.624;9.212;2023-08-31T10:21:32;2.90;;;2.67;;
7817;SDS011;3954;52.624;9.212;2023-08-31T10:23:59;3.10;;;2.40;;
7817;SDS011;3954;52.624;9.212;2023-08-31T10:26:26;4.93;;;2.80;;
7817;SDS011;3954;52.624;9.212;2023-08-31T10:28:52;4.93;;;2.47;;
7817;SDS011;3954;52.624;9.212;2023-08-31T10:31:19;3.23;;;2.27;;
7817;SDS011;3954;52.624;9.212;2023-08-31T10:33:54;2.80;;;2.03;;
7817;SDS011;3954;52.624;9.212;2023-08-31T10:36:22;4.43;;;2.17;;
7817;SDS011;3954;52.624;9.212;2023-08-31T10:38:59;3.93;;;2.10;;
7817;SDS011;3954;52.624;9.212;2023-08-31T10:41:29;4.80;;;2.30;;
7817;SDS011;3954;52.624;9.212;2023-08-31T10:43:57;5.20;;;2.10;;
7817;SDS011;3954;52.624;9.212;2023-08-31T10:46:27;3.83;;;2.50;;
7817;SDS011;3954;52.624;9.212;2023-08-31T10:48:54;4.47;;;2.43;;
7817;SDS011;3954;52.624;9.212;2023-08-31T10:51:25;4.30;;;2.37;;
7817;SDS011;3954;52.624;9.212;2023-08-31T10:53:51;6.37;;;2.90;;
7817;SDS011;3954;52.624;9.212;2023-08-31T10:56:17;3.40;;;2.70;;
7817;SDS011;3954;52.624;9.212;2023-08-31T10:58:54;2.57;;;2.30;;
7817;SDS011;3954;52.624;9.212;2023-08-31T11:04:01;2.83;;;1.87;;
7817;SDS011;3954;52.624;9.212;2023-08-31T11:06:37;2.57;;;1.90;;
7817;SDS011;3954;52.624;9.212;2023-08-31T11:09:03;3.90;;;2.03;;
7817;SDS011;3954;52.624;9.212;2023-08-31T11:11:37;2.40;;;1.93;;
7817;SDS011;3954;52.624;9.212;2023-08-31T11:14:03;3.70;;;1.90;;
7817;SDS011;3954;52.624;9.212;2023-08-31T11:16:29;2.40;;;1.80;;
7817;SDS011;3954;52.624;9.212;2023-08-31T11:18:56;2.20;;;1.30;;
7817;SDS011;3954;52.624;9.212;2023-08-31T11:21:22;1.77;;;1.00;;
7817;SDS011;3954;52.624;9.212;2023-08-31T11:23:49;4.37;;;1.60;;
7817;SDS011;3954;52.624;9.212;2023-08-31T11:26:17;1.30;;;1.10;;
7817;SDS011;3954;52.624;9.212;2023-08-31T11:28:44;2.87;;;1.40;;
7817;SDS011;3954;52.624;9.212;2023-08-31T11:31:11;2.37;;;1.80;;
7817;SDS011;3954;52.624;9.212;2023-08-31T11:33:37;2.30;;;1.63;;
7817;SDS011;3954;52.624;9.212;2023-08-31T11:36:03;3.77;;;2.00;;
7817;SDS011;3954;52.624;9.212;2023-08-31T11:38:29;2.47;;;1.77;;
7817;SDS011;3954;52.624;9.212;2023-08-31T11:40:57;2.67;;;1.90;;
7817;SDS011;3954;52.624;9.212;2023-08-31T11:43:24;3.73;;;2.00;;
7817;SDS011;3954;52.624;9.212;2023-08-31T11:45:50;2.73;;;2.10;;
7817;SDS011;3954;52.624;9.212;2023-08-31T11:48:17;3.00;;;1.50;;
7817;SDS011;3954;52.624;9.212;2023-08-31T11:50:43;2.97;;;2.20;;
7817;SDS011;3954;52.624;9.212;2023-08-31T11:53:09;3.23;;;1.80;;
7817;SDS011;3954;52.624;9.212;2023-08-31T11:55:35;3.27;;;1.80;;
7817;SDS011;3954;52.624;9.212;2023-08-31T11:58:03;2.00;;;1.53;;
7817;SDS011;3954;52.624;9.212;2023-08-31T12:00:33;3.17;;;1.70;;
7817;SDS011;3954;52.624;9.212;2023-08-31T12:02:59;2.33;;;1.60;;
7817;SDS011;3954;52.624;9.212;2023-08-31T12:05:26;3.10;;;1.60;;
7817;SDS011;3954;52.624;9.212;2023-08-31T12:07:52;3.53;;;1.50;;
7817;SDS011;3954;52.624;9.212;2023-08-31T12:10:19;3.50;;;1.43;;
7817;SDS011;3954;52.624;9.212;2023-08-31T12:12:45;2.37;;;1.30;;
7817;SDS011;3954;52.624;9.212;2023-08-31T12:15:13;2.53;;;1.30;;
7817;SDS011;3954;52.624;9.212;2023-08-31T12:17:39;2.33;;;1.13;;
7817;SDS011;3954;52.624;9.212;2023-08-31T12:20:05;4.07;;;1.57;;
7817;SDS011;3954;52.624;9.212;2023-08-31T12:22:32;2.40;;;1.40;;
7817;SDS011;3954;52.624;9.212;2023-08-31T12:25:00;3.47;;;1.70;;
7817;SDS011;3954;52.624;9.212;2023-08-31T12:27:26;1.27;;;1.13;;
7817;SDS011;3954;52.624;9.212;2023-08-31T12:29:52;1.53;;;1.23;;
7817;SDS011;3954;52.624;9.212;2023-08-31T12:32:20;2.17;;;1.40;;
7817;SDS011;3954;52.624;9.212;2023-08-31T12:34:46;1.97;;;1.40;;
7817;SDS011;3954;52.624;9.212;2023-08-31T12:37:12;2.70;;;1.50;;
7817;SDS011;3954;52.624;9.212;2023-08-31T12:39:39;2.20;;;1.50;;
7817;SDS011;3954;52.624;9.212;2023-08-31T12:42:07;3.67;;;2.07;;
7817;SDS011;3954;52.624;9.212;2023-08-31T12:44:33;2.20;;;1.80;;
7817;SDS011;3954;52.624;9.212;2023-08-31T12:46:59;3.07;;;1.80;;
7817;SDS011;3954;52.624;9.212;2023-08-31T12:49:26;4.30;;;1.43;;
7817;SDS011;3954;52.624;9.212;2023-08-31T12:51:52;2.23;;;1.20;;
7817;SDS011;3954;52.624;9.212;2023-08-31T12:54:18;2.87;;;1.60;;
7817;SDS011;3954;52.624;9.212;2023-08-31T12:56:44;2.27;;;1.20;;
7817;SDS011;3954;52.624;9.212;2023-08-31T12:59:10;2.67;;;1.37;;
7817;SDS011;3954;52.624;9.212;2023-08-31T13:01:36;1.57;;;1.20;;
7817;SDS011;3954;52.624;9.212;2023-08-31T13:04:03;2.70;;;1.47;;
7817;SDS011;3954;52.624;9.212;2023-08-31T13:06:31;3.17;;;1.70;;
7817;SDS011;3954;52.624;9.212;2023-08-31T13:08:57;4.43;;;1.80;;
7817;SDS011;3954;52.624;9.212;2023-08-31T13:11:23;2.53;;;1.70;;
7817;SDS011;3954;52.624;9.212;2023-08-31T13:13:49;4.07;;;1.90;;
7817;SDS011;3954;52.624;9.212;2023-08-31T13:16:18;2.77;;;1.60;;
7817;SDS011;3954;52.624;9.212;2023-08-31T13:18:44;1.30;;;1.20;;
7817;SDS011;3954;52.624;9.212;2023-08-31T13:21:10;2.03;;;1.20;;
7817;SDS011;3954;52.624;9.212;2023-08-31T13:23:38;2.30;;;1.20;;
7817;SDS011;3954;52.624;9.212;2023-08-31T13:26:04;2.87;;;1.40;;
7817;SDS011;3954;52.624;9.212;2023-08-31T13:28:30;1.73;;;0.77;;
7817;SDS011;3954;52.624;9.212;2023-08-31T13:30:56;2.20;;;1.20;;
7817;SDS011;3954;52.624;9.212;2023-08-31T13:33:26;1.90;;;0.90;;
7817;SDS011;3954;52.624;9.212;2023-08-31T13:35:53;2.07;;;1.10;;
7817;SDS011;3954;52.624;9.212;2023-08-31T13:38:19;2.67;;;0.93;;
7817;SDS011;3954;52.624;9.212;2023-08-31T13:40:48;1.10;;;1.00;;
7817;SDS011;3954;52.624;9.212;2023-08-31T13:43:14;3.47;;;1.07;;
7817;SDS011;3954;52.624;9.212;2023-08-31T13:45:40;1.47;;;1.10;;
7817;SDS011;3954;52.624;9.212;2023-08-31T13:48:06;2.57;;;1.30;;
7817;SDS011;3954;52.624;9.212;2023-08-31T13:50:32;1.10;;;1.00;;
7817;SDS011;3954;52.624;9.212;2023-08-31T13:52:58;1.20;;;1.00;;
7817;SDS011;3954;52.624;9.212;2023-08-31T13:55:24;3.17;;;1.23;;
7817;SDS011;3954;52.624;9.212;2023-08-31T13:57:52;2.10;;;1.33;;
7817;SDS011;3954;52.624;9.212;2023-08-31T14:00:19;1.63;;;1.10;;
7817;SDS011;3954;52.624;9.212;2023-08-31T14:02:45;2.33;;;1.10;;
7817;SDS011;3954;52.624;9.212;2023-08-31T14:05:11;2.43;;;1.10;;
7817;SDS011;3954;52.624;9.212;2023-08-31T14:07:37;3.57;;;1.50;;
7817;SDS011;3954;52.624;9.212;2023-08-31T14:10:03;1.77;;;1.20;;
7817;SDS011;3954;52.624;9.212;2023-08-31T14:12:33;1.40;;;1.20;;
7817;SDS011;3954;52.624;9.212;2023-08-31T14:15:00;4.17;;;1.43;;
7817;SDS011;3954;52.624;9.212;2023-08-31T14:17:29;2.23;;;1.33;;
7817;SDS011;3954;52.624;9.212;2023-08-31T14:19:55;2.67;;;1.50;;
7817;SDS011;3954;52.624;9.212;2023-08-31T14:22:21;2.33;;;1.50;;
7817;SDS011;3954;52.624;9.212;2023-08-31T14:24:48;2.23;;;1.17;;
7817;SDS011;3954;52.624;9.212;2023-08-31T14:27:14;2.47;;;1.43;;
7817;SDS011;3954;52.624;9.212;2023-08-31T14:29:40;2.03;;;1.40;;
7817;SDS011;3954;52.624;9.212;2023-08-31T14:32:08;1.33;;;1.23;;
7817;SDS011;3954;52.624;9.212;2023-08-31T14:34:34;2.30;;;1.40;;
7817;SDS011;3954;52.624;9.212;2023-08-31T14:37:00;3.10;;;1.60;;
7817;SDS011;3954;52.624;9.212;2023-08-31T14:39:26;2.87;;;1.53;;
7817;SDS011;3954;52.624;9.212;2023-08-31T14:41:54;1.43;;;1.20;;
7817;SDS011;3954;52.624;9.212;2023-08-31T14:44:21;2.43;;;1.73;;
7817;SDS011;3954;52.624;9.212;2023-08-31T14:46:47;2.80;;;1.40;;
7817;SDS011;3954;52.624;9.212;2023-08-31T14:49:16;3.67;;;1.40;;
7817;SDS011;3954;52.624;9.212;2023-08-31T14:51:42;1.50;;;1.10;;
7817;SDS011;3954;52.624;9.212;2023-08-31T14:54:09;2.60;;;1.30;;
7817;SDS011;3954;52.624;9.212;2023-08-31T14:56:35;2.47;;;1.20;;
7817;SDS011;3954;52.624;9.212;2023-08-31T14:59:01;1.57;;;1.20;;
7817;SDS011;3954;52.624;9.212;2023-08-31T15:01:27;1.30;;;1.07;;
7817;SDS011;3954;52.624;9.212;2023-08-31T15:03:54;2.57;;;1.13;;
7817;SDS011;3954;52.624;9.212;2023-08-31T15:06:21;5.33;;;1.30;;
7817;SDS011;3954;52.624;9.212;2023-08-31T15:08:47;2.13;;;1.20;;
7817;SDS011;3954;52.624;9.212;2023-08-31T15:11:13;1.67;;;1.20;;
7817;SDS011;3954;52.624;9.212;2023-08-31T15:13:39;1.97;;;1.03;;